createdAt,value
2019-02-18T00:00:07.943Z,-2.1
2019-02-18T00:00:57.986Z,-2.1
2019-02-18T00:01:48.106Z,-2.1
2019-02-18T00:02:37.829Z,-2.1
2019-02-18T00:03:28.499Z,-2.1
2019-02-18T00:04:18.505Z,-2.2
2019-02-18T00:05:08.351Z,-2.2
2019-02-18T00:05:58.603Z,-2.2
2019-02-18T00:06:48.668Z,-2.2
2019-02-18T00:07:38.198Z,-2.3
2019-02-18T00:08:28.518Z,-2.3
2019-02-18T00:09:18.298Z,-2.3
2019-02-18T00:10:08.456Z,-2.3
2019-02-18T00:10:58.201Z,-2.3
2019-02-18T00:11:48.254Z,-2.3
2019-02-18T00:12:38.583Z,-2.3
2019-02-18T00:13:28.865Z,-2.4
2019-02-18T00:14:19.178Z,-2.4
2019-02-18T00:15:09.330Z,-2.4
2019-02-18T00:15:59.050Z,-2.4
2019-02-18T00:16:48.813Z,-2.4
2019-02-18T00:17:39.141Z,-2.4
2019-02-18T00:18:29.216Z,-2.4
2019-02-18T00:19:19.267Z,-2.4
2019-02-18T00:20:09.065Z,-2.4
2019-02-18T00:20:59.434Z,-2.5
2019-02-18T00:21:49.705Z,-2.5
2019-02-18T00:22:39.764Z,-2.5
2019-02-18T00:23:29.570Z,-2.5
2019-02-18T00:24:19.892Z,-2.5
2019-02-18T00:25:09.664Z,-2.6
2019-02-18T00:25:59.462Z,-2.6
2019-02-18T00:26:49.496Z,-2.6
2019-02-18T00:27:40.113Z,-2.6
2019-02-18T00:28:30.168Z,-2.6
2019-02-18T00:29:19.688Z,-2.6
2019-02-18T00:30:09.494Z,-2.6
2019-02-18T00:30:59.789Z,-2.6
2019-02-18T00:31:50.117Z,-2.6
2019-02-18T00:32:40.465Z,-2.6
2019-02-18T00:33:30.247Z,-2.6
2019-02-18T00:34:20.572Z,-2.6
2019-02-18T00:35:10.374Z,-2.6
2019-02-18T00:36:00.684Z,-2.6
2019-02-18T00:36:50.741Z,-2.6
2019-02-18T00:37:40.790Z,-2.7
2019-02-18T00:38:30.866Z,-2.7
2019-02-18T00:39:20.917Z,-2.6
2019-02-18T00:40:10.999Z,-2.6
2019-02-18T00:41:00.795Z,-2.7
2019-02-18T00:41:51.549Z,-2.7
2019-02-18T00:42:40.884Z,-2.7
2019-02-18T00:43:31.213Z,-2.7
2019-02-18T00:44:21.273Z,-2.7
2019-02-18T00:45:11.331Z,-2.7
2019-02-18T00:46:01.374Z,-2.8
2019-02-18T00:46:50.891Z,-2.7
2019-02-18T00:47:41.233Z,-2.8
2019-02-18T00:48:31.291Z,-2.8
2019-02-18T00:49:21.078Z,-2.8
2019-02-18T00:50:11.128Z,-2.8
2019-02-18T00:51:01.163Z,-2.8
2019-02-18T00:51:51.237Z,-2.9
2019-02-18T00:52:41.835Z,-2.9
2019-02-18T00:53:31.958Z,-2.9
2019-02-18T00:54:21.697Z,-2.9
2019-02-18T00:55:11.473Z,-2.9
2019-02-18T00:56:01.538Z,-2.9
2019-02-18T00:56:51.852Z,-2.9
2019-02-18T00:57:41.939Z,-2.9
2019-02-18T00:58:32.250Z,-2.9
2019-02-18T00:59:21.832Z,-2.9
2019-02-18T01:00:12.107Z,-3
2019-02-18T01:01:02.445Z,-3
2019-02-18T01:01:52.267Z,-3
2019-02-18T01:02:41.985Z,-3
2019-02-18T01:03:32.580Z,-3
2019-02-18T01:04:22.656Z,-2.9
2019-02-18T01:05:12.508Z,-2.9
2019-02-18T01:06:02.269Z,-2.9
2019-02-18T01:06:52.544Z,-2.9
2019-02-18T01:07:42.620Z,-2.9
2019-02-18T01:08:32.678Z,-2.9
2019-02-18T01:09:22.724Z,-2.9
2019-02-18T01:10:12.790Z,-2.9
2019-02-18T01:11:02.662Z,-2.9
2019-02-18T01:11:53.174Z,-3
2019-02-18T01:12:42.959Z,-3
2019-02-18T01:13:32.999Z,-3.1
2019-02-18T01:14:23.347Z,-3.1
2019-02-18T01:15:13.185Z,-3.1
2019-02-18T01:16:03.230Z,-3.1
2019-02-18T01:16:53.249Z,-3.1
2019-02-18T01:17:43.584Z,-3.1
2019-02-18T01:18:33.651Z,-3.1
2019-02-18T01:19:23.686Z,-3.1
2019-02-18T01:20:13.596Z,-3.1
2019-02-18T01:21:03.523Z,-3.1
2019-02-18T01:21:53.579Z,-3.1
2019-02-18T01:22:44.090Z,-3.1
2019-02-18T01:23:34.044Z,-3.1
2019-02-18T01:24:23.768Z,-3.1
2019-02-18T01:25:13.884Z,-3.1
2019-02-18T01:26:03.873Z,-3.1
2019-02-18T01:26:53.941Z,-3.1
2019-02-18T01:27:43.751Z,-3.1
2019-02-18T01:28:34.086Z,-3.2
2019-02-18T01:29:24.375Z,-3.2
2019-02-18T01:30:14.174Z,-3.2
2019-02-18T01:31:04.276Z,-3.3
2019-02-18T01:31:54.285Z,-3.3
2019-02-18T01:32:44.608Z,-3.3
2019-02-18T01:33:34.103Z,-3.3
2019-02-18T01:34:24.743Z,-3.3
2019-02-18T01:35:14.506Z,-3.3
2019-02-18T01:36:04.873Z,-3.3
2019-02-18T01:36:54.618Z,-3.3
2019-02-18T01:37:48.488Z,-3.3
2019-02-18T01:38:34.750Z,-3.4
2019-02-18T01:39:25.083Z,-3.4
2019-02-18T01:40:14.949Z,-3.4
2019-02-18T01:41:05.234Z,-3.4
2019-02-18T01:41:54.970Z,-3.4
2019-02-18T01:42:45.319Z,-3.5
2019-02-18T01:43:34.538Z,-3.4
2019-02-18T01:44:25.165Z,-3.5
2019-02-18T01:45:15.207Z,-3.5
2019-02-18T01:46:05.547Z,-3.5
2019-02-18T01:46:55.585Z,-3.4
2019-02-18T01:47:45.373Z,-3.4
2019-02-18T01:48:35.754Z,-3.4
2019-02-18T01:49:25.265Z,-3.4
2019-02-18T01:50:15.893Z,-3.4
2019-02-18T01:51:05.619Z,-3.4
2019-02-18T01:51:55.387Z,-3.4
2019-02-18T01:52:45.760Z,-3.4
2019-02-18T01:53:35.784Z,-3.5
2019-02-18T01:54:25.566Z,-3.5
2019-02-18T01:55:15.912Z,-3.5
2019-02-18T01:56:06.229Z,-3.6
2019-02-18T01:56:55.997Z,-3.6
2019-02-18T01:57:46.066Z,-3.6
2019-02-18T01:58:36.121Z,-3.6
2019-02-18T01:59:26.457Z,-3.6
2019-02-18T02:00:16.001Z,-3.7
2019-02-18T02:01:06.298Z,-3.7
2019-02-18T02:01:56.630Z,-3.7
2019-02-18T02:02:46.253Z,-3.7
2019-02-18T02:03:36.804Z,-3.7
2019-02-18T02:06:06.370Z,-3.8
2019-02-18T02:06:56.978Z,-3.8
2019-02-18T02:07:58.283Z,-3.8
2019-02-18T02:08:36.834Z,-3.9
2019-02-18T02:09:26.582Z,-3.9
2019-02-18T02:10:16.964Z,-3.9
2019-02-18T02:11:06.713Z,-3.9
2019-02-18T02:11:57.039Z,-3.9
2019-02-18T02:12:47.377Z,-3.9
2019-02-18T02:13:37.463Z,-4
2019-02-18T02:14:27.519Z,-4
2019-02-18T02:15:17.619Z,-3.9
2019-02-18T02:16:07.330Z,-3.9
2019-02-18T02:16:57.430Z,-3.9
2019-02-18T02:17:47.452Z,-3.9
2019-02-18T02:18:37.783Z,-3.9
2019-02-18T02:19:27.856Z,-3.9
2019-02-18T02:20:17.632Z,-3.9
2019-02-18T02:21:07.410Z,-4
2019-02-18T02:21:57.742Z,-3.9
2019-02-18T02:22:47.792Z,-4
2019-02-18T02:23:37.855Z,-4
2019-02-18T02:24:27.652Z,-4
2019-02-18T02:25:17.967Z,-4
2019-02-18T02:26:08.060Z,-4
2019-02-18T02:26:58.097Z,-4.1
2019-02-18T02:27:48.157Z,-4.1
2019-02-18T02:28:37.932Z,-4.1
2019-02-18T02:29:28.319Z,-4.1
2019-02-18T02:30:18.398Z,-4.1
2019-02-18T02:31:08.689Z,-4.1
2019-02-18T02:31:58.832Z,-4.1
2019-02-18T02:32:48.248Z,-4.1
2019-02-18T02:33:38.584Z,-4.1
2019-02-18T02:34:28.629Z,-4.1
2019-02-18T02:35:18.998Z,-4.1
2019-02-18T02:36:09.004Z,-4.1
2019-02-18T02:36:58.517Z,-4.1
2019-02-18T02:37:48.917Z,-4.1
2019-02-18T02:38:38.367Z,-4.1
2019-02-18T02:39:29.304Z,-4.1
2019-02-18T02:40:18.485Z,-4.1
2019-02-18T02:41:09.090Z,-4.1
2019-02-18T02:41:58.854Z,-4.2
2019-02-18T02:42:49.477Z,-4.2
2019-02-18T02:43:39.258Z,-4.2
2019-02-18T02:44:29.610Z,-4.2
2019-02-18T02:45:19.423Z,-4.2
2019-02-18T02:46:09.756Z,-4.1
2019-02-18T02:46:59.279Z,-4.1
2019-02-18T02:47:49.528Z,-4.1
2019-02-18T02:48:39.595Z,-4.1
2019-02-18T02:49:29.667Z,-4.2
2019-02-18T02:50:20.020Z,-4.2
2019-02-18T02:51:10.106Z,-4.2
2019-02-18T02:52:00.109Z,-4.2
2019-02-18T02:52:49.925Z,-4.2
2019-02-18T02:53:40.221Z,-4.2
2019-02-18T02:54:29.722Z,-4.3
2019-02-18T02:55:20.059Z,-4.3
2019-02-18T02:56:10.474Z,-4.3
2019-02-18T02:57:00.436Z,-4.2
2019-02-18T02:57:50.486Z,-4.3
2019-02-18T02:58:40.564Z,-4.3
2019-02-18T02:59:29.839Z,-4.3
2019-02-18T03:00:20.528Z,-4.3
2019-02-18T03:01:10.729Z,-4.3
2019-02-18T03:02:00.295Z,-4.3
2019-02-18T03:02:49.827Z,-4.3
2019-02-18T03:03:40.419Z,-4.4
2019-02-18T03:04:30.499Z,-4.4
2019-02-18T03:08:03.172Z,-4.4
2019-02-18T03:08:52.796Z,-4.4
2019-02-18T03:09:43.279Z,-4.4
2019-02-18T03:10:33.037Z,-4.4
2019-02-18T03:11:23.402Z,-4.4
2019-02-18T03:12:13.197Z,-4.4
2019-02-18T03:13:03.531Z,-4.5
2019-02-18T03:13:53.562Z,-4.5
2019-02-18T03:14:43.374Z,-4.5
2019-02-18T03:15:33.686Z,-4.6
2019-02-18T03:16:23.458Z,-4.6
2019-02-18T03:17:13.559Z,-4.6
2019-02-18T03:18:04.133Z,-4.6
2019-02-18T03:18:54.254Z,-4.6
2019-02-18T03:19:43.963Z,-4.6
2019-02-18T03:20:34.009Z,-4.6
2019-02-18T03:21:24.086Z,-4.6
2019-02-18T03:22:13.862Z,-4.6
2019-02-18T03:23:03.729Z,-4.7
2019-02-18T03:23:53.791Z,-4.7
2019-02-18T03:24:44.115Z,-4.7
2019-02-18T03:25:34.452Z,-4.7
2019-02-18T03:26:24.446Z,-4.7
2019-02-18T03:27:14.525Z,-4.7
2019-02-18T03:28:04.571Z,-4.7
2019-02-18T03:28:54.610Z,-4.7
2019-02-18T03:29:44.946Z,-4.7
2019-02-18T03:30:34.756Z,-4.8
2019-02-18T03:31:24.887Z,-4.8
2019-02-18T03:32:14.901Z,-4.8
2019-02-18T03:33:05.301Z,-4.8
2019-02-18T03:33:55.045Z,-4.8
2019-02-18T03:34:44.746Z,-4.9
2019-02-18T03:35:35.105Z,-4.8
2019-02-18T03:36:25.115Z,-4.8
2019-02-18T03:37:15.207Z,-4.8
2019-02-18T03:38:05.329Z,-4.8
2019-02-18T03:38:55.019Z,-4.8
2019-02-18T03:39:45.375Z,-4.9
2019-02-18T03:40:35.687Z,-4.8
2019-02-18T03:41:25.723Z,-4.9
2019-02-18T03:42:15.578Z,-4.9
2019-02-18T03:43:05.857Z,-4.9
2019-02-18T03:43:55.645Z,-4.9
2019-02-18T03:44:45.706Z,-4.9
2019-02-18T03:45:35.768Z,-4.9
2019-02-18T03:46:26.094Z,-4.9
2019-02-18T03:47:15.669Z,-4.9
2019-02-18T03:48:06.277Z,-4.9
2019-02-18T03:48:55.999Z,-4.9
2019-02-18T03:49:46.355Z,-4.9
2019-02-18T03:50:36.485Z,-4.9
2019-02-18T03:51:26.159Z,-4.9
2019-02-18T03:52:16.499Z,-4.9
2019-02-18T03:53:06.304Z,-4.9
2019-02-18T03:53:56.604Z,-4.9
2019-02-18T03:54:46.668Z,-4.9
2019-02-18T03:55:36.502Z,-5
2019-02-18T03:56:26.507Z,-5
2019-02-18T03:57:16.296Z,-5
2019-02-18T03:58:06.906Z,-5
2019-02-18T03:58:56.669Z,-5
2019-02-18T03:59:46.821Z,-5
2019-02-18T04:00:36.511Z,-5
2019-02-18T04:01:26.829Z,-5
2019-02-18T04:02:16.942Z,-5
2019-02-18T04:03:06.956Z,-5
2019-02-18T04:03:56.756Z,-5
2019-02-18T04:04:47.079Z,-5
2019-02-18T04:05:37.138Z,-5
2019-02-18T04:06:27.056Z,-5
2019-02-18T04:07:17.264Z,-5.1
2019-02-18T04:08:07.316Z,-5.1
2019-02-18T04:08:57.671Z,-5.1
2019-02-18T04:09:47.433Z,-5.2
2019-02-18T04:10:37.522Z,-5.2
2019-02-18T04:11:27.806Z,-5.2
2019-02-18T04:12:17.605Z,-5.2
2019-02-18T04:13:08.019Z,-5.3
2019-02-18T04:13:57.834Z,-5.3
2019-02-18T04:14:48.057Z,-5.2
2019-02-18T04:15:37.850Z,-5.2
2019-02-18T04:16:27.608Z,-5.3
2019-02-18T04:17:17.680Z,-5.3
2019-02-18T04:18:08.065Z,-5.3
2019-02-18T04:18:58.115Z,-5.2
2019-02-18T04:19:48.377Z,-5.2
2019-02-18T04:20:38.493Z,-5.2
2019-02-18T04:21:27.791Z,-5.2
2019-02-18T04:22:18.555Z,-5.2
2019-02-18T04:23:07.790Z,-5.2
2019-02-18T04:23:57.848Z,-5.2
2019-02-18T04:24:48.514Z,-5.1
2019-02-18T04:25:38.900Z,-5.1
2019-02-18T04:26:28.931Z,-5.1
2019-02-18T04:27:18.635Z,-5.1
2019-02-18T04:28:08.685Z,-5.1
2019-02-18T04:28:58.492Z,-5.2
2019-02-18T04:29:49.077Z,-5.2
2019-02-18T04:30:38.904Z,-5.2
2019-02-18T04:31:29.033Z,-5.3
2019-02-18T04:32:19.252Z,-5.3
2019-02-18T04:33:09.331Z,-5.3
2019-02-18T04:33:59.385Z,-5.3
2019-02-18T04:34:49.169Z,-5.3
2019-02-18T04:35:39.471Z,-5.3
2019-02-18T04:36:29.282Z,-5.3
2019-02-18T04:37:19.641Z,-5.3
2019-02-18T04:38:09.115Z,-5.3
2019-02-18T04:38:59.445Z,-5.3
2019-02-18T04:39:49.516Z,-5.3
2019-02-18T04:40:39.860Z,-5.3
2019-02-18T04:41:29.663Z,-5.3
2019-02-18T04:42:19.958Z,-5.3
2019-02-18T04:43:09.993Z,-5.3
2019-02-18T04:44:00.105Z,-5.3
2019-02-18T04:44:49.576Z,-5.3
2019-02-18T04:45:39.691Z,-5.3
2019-02-18T04:46:30.241Z,-5.3
2019-02-18T04:47:20.033Z,-5.3
2019-02-18T04:48:10.397Z,-5.3
2019-02-18T04:49:00.421Z,-5.3
2019-02-18T04:49:50.466Z,-5.3
2019-02-18T04:50:40.258Z,-5.3
2019-02-18T04:51:30.628Z,-5.3
2019-02-18T04:52:20.373Z,-5.3
2019-02-18T04:53:10.708Z,-5.3
2019-02-18T04:54:00.477Z,-5.3
2019-02-18T04:54:50.809Z,-5.3
2019-02-18T04:55:40.588Z,-5.3
2019-02-18T04:56:30.941Z,-5.3
2019-02-18T04:57:20.997Z,-5.2
2019-02-18T04:58:11.065Z,-5.3
2019-02-18T04:59:00.854Z,-5.3
2019-02-18T04:59:50.930Z,-5.3
2019-02-18T05:00:40.713Z,-5.3
2019-02-18T05:01:31.308Z,-5.3
2019-02-18T05:02:21.347Z,-5.2
2019-02-18T05:03:11.133Z,-5.2
2019-02-18T05:04:01.546Z,-5.2
2019-02-18T05:04:51.290Z,-5.2
2019-02-18T05:05:41.577Z,-5.2
2019-02-18T05:06:31.359Z,-5.2
2019-02-18T05:07:21.684Z,-5.1
2019-02-18T05:08:11.743Z,-5.2
2019-02-18T05:09:08.120Z,-5.3
2019-02-18T05:09:51.853Z,-5.3
2019-02-18T05:10:41.929Z,-5.3
2019-02-18T05:11:31.694Z,-5.3
2019-02-18T05:12:21.746Z,-5.3
2019-02-18T05:13:11.824Z,-5.3
2019-02-18T05:14:01.907Z,-5.3
2019-02-18T05:14:52.194Z,-5.3
2019-02-18T05:15:42.659Z,-5.3
2019-02-18T05:16:32.053Z,-5.3
2019-02-18T05:17:22.073Z,-5.3
2019-02-18T05:18:11.865Z,-5.3
2019-02-18T05:19:02.220Z,-5.3
2019-02-18T05:19:52.007Z,-5.4
2019-02-18T05:20:42.649Z,-5.4
2019-02-18T05:21:32.396Z,-5.4
2019-02-18T05:22:22.434Z,-5.4
2019-02-18T05:23:12.774Z,-5.4
2019-02-18T05:24:02.832Z,-5.4
2019-02-18T05:24:52.885Z,-5.3
2019-02-18T05:25:42.684Z,-5.4
2019-02-18T05:26:32.448Z,-5.3
2019-02-18T05:27:34.302Z,-5.3
2019-02-18T05:28:13.107Z,-5.3
2019-02-18T05:29:03.240Z,-5.3
2019-02-18T05:29:53.250Z,-5.3
2019-02-18T05:30:43.370Z,-5.3
2019-02-18T05:31:33.087Z,-5.3
2019-02-18T05:32:22.875Z,-5.3
2019-02-18T05:33:13.479Z,-5.3
2019-02-18T05:34:03.605Z,-5.3
2019-02-18T05:34:53.579Z,-5.3
2019-02-18T05:35:43.079Z,-5.3
2019-02-18T05:36:33.425Z,-5.3
2019-02-18T05:37:23.577Z,-5.3
2019-02-18T05:38:13.831Z,-5.2
2019-02-18T05:39:03.042Z,-5.2
2019-02-18T05:39:56.229Z,-5.2
2019-02-18T05:40:43.733Z,-5.2
2019-02-18T05:41:34.127Z,-5.2
2019-02-18T05:42:23.836Z,-5.2
2019-02-18T05:43:14.146Z,-5.2
2019-02-18T05:44:03.674Z,-5.1
2019-02-18T05:44:54.263Z,-5.1
2019-02-18T05:45:44.083Z,-5.1
2019-02-18T05:46:34.088Z,-5.1
2019-02-18T05:47:24.176Z,-5
2019-02-18T05:48:14.537Z,-5
2019-02-18T05:49:04.030Z,-4.9
2019-02-18T05:49:54.704Z,-4.9
2019-02-18T05:50:44.388Z,-4.8
2019-02-18T05:51:34.729Z,-4.7
2019-02-18T05:52:24.235Z,-4.6
2019-02-18T05:53:14.370Z,-4.6
2019-02-18T05:54:04.373Z,-4.5
2019-02-18T05:54:54.674Z,-4.4
2019-02-18T05:55:44.753Z,-4.3
2019-02-18T05:56:35.059Z,-4.3
2019-02-18T05:57:25.625Z,-4.2
2019-02-18T05:58:15.187Z,-4.1
2019-02-18T05:59:05.297Z,-4
2019-02-18T05:59:55.031Z,-3.9
2019-02-18T06:00:44.903Z,-3.8
2019-02-18T06:01:35.145Z,-3.7
2019-02-18T06:02:25.505Z,-3.6
2019-02-18T06:03:14.723Z,-3.5
2019-02-18T06:04:05.616Z,-3.4
2019-02-18T06:06:03.008Z,-3.1
2019-02-18T06:06:53.333Z,-2.9
2019-02-18T06:07:43.452Z,-2.8
2019-02-18T06:08:32.626Z,-2.6
2019-02-18T06:09:32.306Z,-2.5
2019-02-18T06:10:18.082Z,-2.3
2019-02-18T06:11:03.339Z,-2.1
2019-02-18T06:11:53.669Z,-1.9
2019-02-18T06:12:43.479Z,-1.7
2019-02-18T06:13:33.224Z,-1.4
2019-02-18T06:14:23.880Z,-1.1
2019-02-18T06:15:13.116Z,-0.8
2019-02-18T06:16:03.939Z,-0.5
2019-02-18T06:16:54.068Z,-0.1
2019-02-18T06:17:44.282Z,0.3
2019-02-18T06:18:34.380Z,0.7
2019-02-18T06:19:23.910Z,1.1
2019-02-18T06:20:14.002Z,1.6
2019-02-18T06:21:04.026Z,2
2019-02-18T06:21:54.367Z,2.6
2019-02-18T06:22:44.685Z,3.2
2019-02-18T06:23:49.126Z,4
2019-02-18T06:24:24.307Z,5
2019-02-18T06:25:14.590Z,5.6
2019-02-18T06:26:04.455Z,6.7
2019-02-18T06:26:54.404Z,7.3
2019-02-18T06:27:44.236Z,8
2019-02-18T06:28:34.873Z,9
2019-02-18T06:29:24.890Z,9.4
2019-02-18T06:30:14.934Z,10.1
2019-02-18T06:31:05.012Z,10.7
2019-02-18T06:31:54.487Z,11.3
2019-02-18T06:32:44.841Z,11.9
2019-02-18T06:33:34.959Z,12.5
2019-02-18T06:34:25.293Z,13.1
2019-02-18T06:35:15.094Z,13.6
2019-02-18T06:36:05.305Z,14.1
2019-02-18T06:36:55.167Z,14.6
2019-02-18T06:37:45.216Z,15.1
2019-02-18T06:38:34.952Z,15.5
2019-02-18T06:39:25.416Z,15.9
2019-02-18T06:40:15.752Z,16.4
2019-02-18T06:41:05.508Z,16.7
2019-02-18T06:41:55.445Z,17.1
2019-02-18T06:42:45.489Z,17.4
2019-02-18T06:43:35.850Z,17.7
2019-02-18T06:44:25.643Z,18.1
2019-02-18T06:45:15.963Z,18.4
2019-02-18T06:46:05.745Z,18.9
2019-02-18T06:46:56.068Z,19.4
2019-02-18T06:47:45.590Z,19.9
2019-02-18T06:48:36.434Z,20.7
2019-02-18T06:50:16.123Z,21.8
2019-02-18T06:51:06.097Z,22.3
2019-02-18T06:51:56.430Z,22.9
2019-02-18T06:52:45.673Z,23.8
2019-02-18T06:53:36.267Z,24.3
2019-02-18T06:54:41.271Z,24.9
2019-02-18T06:55:16.390Z,25.8
2019-02-18T06:56:06.712Z,26.2
2019-02-18T06:56:56.557Z,26.9
2019-02-18T06:57:46.562Z,27.6
2019-02-18T06:58:36.608Z,28.2
2019-02-18T06:59:26.388Z,28.8
2019-02-18T07:00:17.054Z,29.5
2019-02-18T07:01:06.514Z,30.2
2019-02-18T07:01:56.289Z,30.9
2019-02-18T07:02:47.237Z,31.6
2019-02-18T07:03:36.697Z,32.3
2019-02-18T07:06:02.956Z,34
2019-02-18T07:06:53.409Z,34.8
2019-02-18T07:07:42.798Z,35.5
2019-02-18T07:08:32.956Z,36.1
2019-02-18T07:09:23.408Z,36.8
2019-02-18T07:10:12.688Z,37.3
2019-02-18T07:11:03.563Z,37.9
2019-02-18T07:11:53.338Z,38.6
2019-02-18T07:12:43.676Z,39.2
2019-02-18T07:13:33.461Z,39.9
2019-02-18T07:14:23.531Z,40.5
2019-02-18T07:15:13.583Z,41.1
2019-02-18T07:16:03.968Z,41.6
2019-02-18T07:16:53.945Z,42.3
2019-02-18T07:17:43.731Z,42.9
2019-02-18T07:18:34.063Z,43.4
2019-02-18T07:19:55.951Z,44
2019-02-18T07:20:13.928Z,44.9
2019-02-18T07:21:03.989Z,45.1
2019-02-18T07:21:54.311Z,45.6
2019-02-18T07:22:44.362Z,46.1
2019-02-18T07:23:34.172Z,46.8
2019-02-18T07:24:24.215Z,47.3
2019-02-18T07:25:14.550Z,47.8
2019-02-18T07:26:04.318Z,48.3
2019-02-18T07:26:54.650Z,48.7
2019-02-18T07:27:44.720Z,49.2
2019-02-18T07:28:33.965Z,49.7
2019-02-18T07:29:24.817Z,50.1
2019-02-18T07:30:14.325Z,50.7
2019-02-18T07:31:04.665Z,51.1
2019-02-18T07:31:54.720Z,51.6
2019-02-18T07:32:44.793Z,52
2019-02-18T07:33:34.591Z,52.4
2019-02-18T07:34:25.062Z,52.9
2019-02-18T07:35:15.310Z,53.6
2019-02-18T07:36:05.297Z,54.1
2019-02-18T07:36:55.416Z,54.5
2019-02-18T07:37:59.790Z,54.9
2019-02-18T07:38:34.903Z,55.4
2019-02-18T07:39:25.304Z,55.7
2019-02-18T07:40:15.794Z,56.1
2019-02-18T07:41:05.625Z,56.6
2019-02-18T07:41:55.409Z,57.1
2019-02-18T07:42:45.749Z,57.6
2019-02-18T07:43:35.822Z,58.3
2019-02-18T07:44:25.604Z,57.9
2019-02-18T07:45:15.928Z,54.7
2019-02-18T07:46:05.981Z,53.1
2019-02-18T07:46:55.831Z,49.9
2019-02-18T07:47:45.538Z,43.4
2019-02-18T07:48:38.555Z,39.5
2019-02-18T07:49:26.219Z,37.3
2019-02-18T07:50:23.581Z,36.4
2019-02-18T07:51:09.524Z,36.4
2019-02-18T07:51:56.394Z,36.9
2019-02-18T07:52:45.903Z,37.9
2019-02-18T07:53:36.215Z,39.1
2019-02-18T07:54:26.301Z,40.4
2019-02-18T07:55:16.618Z,41.9
2019-02-18T07:56:06.689Z,43.3
2019-02-18T07:56:56.450Z,44.7
2019-02-18T07:57:46.790Z,46
2019-02-18T07:58:36.561Z,47.3
2019-02-18T07:59:26.373Z,48.5
2019-02-18T08:00:16.691Z,49.6
2019-02-18T08:01:06.748Z,50.8
2019-02-18T08:01:57.100Z,51.8
2019-02-18T08:02:47.190Z,52.8
2019-02-18T08:03:36.933Z,53.9
2019-02-18T08:04:27.245Z,54.8
2019-02-18T08:05:17.051Z,55.6
2019-02-18T08:06:06.816Z,56.4
2019-02-18T08:06:56.870Z,57.3
2019-02-18T08:07:47.481Z,58.9
2019-02-18T08:08:36.783Z,57.1
2019-02-18T08:09:27.331Z,54.6
2019-02-18T08:10:17.638Z,53.1
2019-02-18T08:11:07.435Z,49.8
2019-02-18T08:11:57.482Z,46.3
2019-02-18T08:12:47.282Z,44.1
2019-02-18T08:13:37.987Z,43.6
2019-02-18T08:14:27.696Z,43.9
2019-02-18T08:15:17.735Z,44.9
2019-02-18T08:16:07.237Z,46.2
2019-02-18T08:16:58.159Z,47.7
2019-02-18T08:17:48.177Z,49.3
2019-02-18T08:18:38.246Z,50.8
2019-02-18T08:19:28.007Z,52.2
2019-02-18T08:20:18.344Z,53.5
2019-02-18T08:21:07.837Z,54.7
2019-02-18T08:21:58.209Z,55.9
2019-02-18T08:22:48.524Z,57.3
2019-02-18T08:23:38.282Z,58.8
2019-02-18T08:24:28.088Z,57.6
2019-02-18T08:25:18.429Z,57.5
2019-02-18T08:26:08.788Z,56.6
2019-02-18T08:26:58.819Z,53.7
2019-02-18T08:27:48.579Z,50.2
2019-02-18T08:28:38.984Z,48.1
2019-02-18T08:29:28.701Z,48.4
2019-02-18T08:30:18.781Z,49.9
2019-02-18T08:31:08.539Z,51.4
2019-02-18T08:31:58.863Z,52.4
2019-02-18T08:32:48.931Z,52.8
2019-02-18T08:33:39.283Z,52.4
2019-02-18T08:34:29.326Z,51.8
2019-02-18T08:35:19.091Z,51
2019-02-18T08:36:09.171Z,50.6
2019-02-18T08:36:59.229Z,50.9
2019-02-18T08:37:49.361Z,51.5
2019-02-18T08:38:39.403Z,52.1
2019-02-18T08:39:29.698Z,52.5
2019-02-18T08:40:25.068Z,52.7
2019-02-18T08:41:09.249Z,52.6
2019-02-18T08:42:49.636Z,52.3
2019-02-18T08:43:39.427Z,52.3
2019-02-18T08:44:29.738Z,52.5
2019-02-18T08:45:19.825Z,52.8
2019-02-18T08:46:10.153Z,53
2019-02-18T08:46:59.648Z,53.2
2019-02-18T08:47:49.698Z,53.4
2019-02-18T08:48:40.320Z,53.6
2019-02-18T08:49:30.090Z,53.7
2019-02-18T08:50:20.412Z,53.8
2019-02-18T08:51:10.223Z,53.9
2019-02-18T08:51:59.703Z,54.1
2019-02-18T08:52:50.043Z,54.3
2019-02-18T08:53:40.395Z,54.5
2019-02-18T08:54:29.957Z,54.7
2019-02-18T08:55:20.493Z,54.8
2019-02-18T08:56:10.827Z,54.9
2019-02-18T08:57:00.345Z,55.1
2019-02-18T08:57:50.942Z,55.3
2019-02-18T08:58:40.999Z,55.4
2019-02-18T08:59:30.512Z,55.4
2019-02-18T09:00:20.837Z,55.7
2019-02-18T09:01:10.894Z,55.9
2019-02-18T09:02:00.962Z,55.9
2019-02-18T09:02:51.324Z,55.9
2019-02-18T09:03:41.113Z,56.1
2019-02-18T09:04:31.142Z,56.3
2019-02-18T09:05:21.703Z,56.5
2019-02-18T09:06:10.965Z,56.7
2019-02-18T09:07:01.629Z,56.9
2019-02-18T09:07:51.363Z,56.9
2019-02-18T09:08:41.487Z,57
2019-02-18T09:09:31.466Z,57
2019-02-18T09:10:21.579Z,57.2
2019-02-18T09:11:11.866Z,57.4
2019-02-18T09:12:01.641Z,57.6
2019-02-18T09:12:51.451Z,57.9
2019-02-18T09:13:41.821Z,58.1
2019-02-18T09:14:31.816Z,58.4
2019-02-18T09:15:22.158Z,58.5
2019-02-18T09:16:12.193Z,58.6
2019-02-18T09:17:02.271Z,58.8
2019-02-18T09:17:52.383Z,58.9
2019-02-18T09:18:41.448Z,59
2019-02-18T09:19:31.963Z,59.1
2019-02-18T09:20:22.503Z,59.3
2019-02-18T09:21:12.027Z,59.6
2019-02-18T09:22:02.342Z,59.8
2019-02-18T09:22:52.205Z,59.8
2019-02-18T09:23:42.766Z,60
2019-02-18T09:24:32.510Z,60
2019-02-18T09:25:22.850Z,60.1
2019-02-18T09:26:12.418Z,60.4
2019-02-18T09:27:02.257Z,60.6
2019-02-18T09:27:53.118Z,60.7
2019-02-18T09:28:42.850Z,60.8
2019-02-18T09:29:32.850Z,60.9
2019-02-18T09:30:22.456Z,60.9
2019-02-18T09:31:12.767Z,61.1
2019-02-18T09:32:02.263Z,61.3
2019-02-18T09:32:52.612Z,61.4
2019-02-18T09:33:42.952Z,61.6
2019-02-18T09:34:33.055Z,61.8
2019-02-18T09:35:22.839Z,62.1
2019-02-18T09:36:12.567Z,62.2
2019-02-18T09:37:02.645Z,62.3
2019-02-18T09:37:53.246Z,62.4
2019-02-18T09:38:43.277Z,62.4
2019-02-18T09:39:33.547Z,62.6
2019-02-18T09:40:22.872Z,62.6
2019-02-18T09:41:12.924Z,62.8
2019-02-18T09:42:03.557Z,62.9
2019-02-18T09:42:52.562Z,62.9
2019-02-18T09:43:43.367Z,63.1
2019-02-18T09:44:33.422Z,63.1
2019-02-18T09:45:23.819Z,63.3
2019-02-18T09:46:13.800Z,63.3
2019-02-18T09:47:04.091Z,63.5
2019-02-18T09:47:56.132Z,63.8
2019-02-18T09:48:43.714Z,63.9
2019-02-18T09:49:34.036Z,64
2019-02-18T09:50:24.579Z,64.1
2019-02-18T09:51:14.146Z,64.2
2019-02-18T09:52:03.679Z,64.2
2019-02-18T09:52:53.978Z,64.3
2019-02-18T09:53:44.809Z,64.3
2019-02-18T09:54:34.894Z,64.5
2019-02-18T09:55:24.081Z,64.7
2019-02-18T09:56:14.534Z,64.8
2019-02-18T09:57:05.027Z,64.9
2019-02-18T09:57:54.608Z,64.8
2019-02-18T09:58:44.939Z,64.8
2019-02-18T09:59:35.209Z,64.8
2019-02-18T10:00:25.269Z,64.9
2019-02-18T10:01:15.330Z,65.1
2019-02-18T10:02:05.391Z,65.2
2019-02-18T10:02:54.890Z,65.3
2019-02-18T10:03:44.963Z,65.3
2019-02-18T10:04:35.582Z,65.3
2019-02-18T10:07:03.082Z,65.4
2019-02-18T10:07:52.314Z,65.4
2019-02-18T10:08:42.920Z,65.4
2019-02-18T10:09:32.957Z,65.4
2019-02-18T10:10:23.383Z,65.4
2019-02-18T10:11:13.065Z,65.6
2019-02-18T10:12:03.192Z,65.8
2019-02-18T10:12:53.461Z,66.1
2019-02-18T10:13:43.528Z,66.1
2019-02-18T10:14:33.299Z,66.1
2019-02-18T10:15:23.663Z,66.1
2019-02-18T10:16:13.152Z,66.1
2019-02-18T10:17:03.740Z,66.1
2019-02-18T10:17:53.811Z,66.3
2019-02-18T10:18:43.860Z,66.4
2019-02-18T10:19:33.450Z,66.6
2019-02-18T10:20:23.979Z,66.8
2019-02-18T10:21:13.774Z,67
2019-02-18T10:22:03.561Z,67.1
2019-02-18T10:22:54.143Z,67.1
2019-02-18T10:23:44.214Z,66.8
2019-02-18T10:24:33.985Z,66.8
2019-02-18T10:25:24.349Z,66.9
2019-02-18T10:26:14.114Z,67
2019-02-18T10:27:04.014Z,67.1
2019-02-18T10:27:54.489Z,67.2
2019-02-18T10:28:44.558Z,67.2
2019-02-18T10:29:34.604Z,67.1
2019-02-18T10:30:24.387Z,67.1
2019-02-18T10:31:14.481Z,67.3
2019-02-18T10:32:04.508Z,67.3
2019-02-18T10:32:54.841Z,67.4
2019-02-18T10:33:44.086Z,67.4
2019-02-18T10:34:34.484Z,67.3
2019-02-18T10:35:26.947Z,67.2
2019-02-18T10:36:15.069Z,67.3
2019-02-18T10:37:05.141Z,67.4
2019-02-18T10:37:57.826Z,67.5
2019-02-18T10:38:45.018Z,67.6
2019-02-18T10:39:35.071Z,67.7
2019-02-18T10:40:24.821Z,67.8
2019-02-18T10:41:15.146Z,68
2019-02-18T10:42:04.928Z,68.1
2019-02-18T10:42:55.546Z,68.1
2019-02-18T10:43:45.625Z,68.2
2019-02-18T10:44:35.134Z,68.3
2019-02-18T10:45:25.725Z,68.2
2019-02-18T10:46:15.515Z,68.1
2019-02-18T10:47:06.736Z,68.2
2019-02-18T10:47:55.931Z,68.2
2019-02-18T10:48:45.685Z,68.3
2019-02-18T10:49:36.025Z,68.4
2019-02-18T10:50:26.089Z,68.4
2019-02-18T10:51:15.908Z,68.6
2019-02-18T10:52:05.971Z,68.7
2019-02-18T10:52:56.640Z,68.7
2019-02-18T10:53:46.387Z,68.8
2019-02-18T10:54:36.419Z,68.9
2019-02-18T10:55:26.190Z,68.9
2019-02-18T10:56:17.282Z,68.9
2019-02-18T10:57:06.276Z,68.8
2019-02-18T10:57:56.618Z,68.7
2019-02-18T10:58:46.119Z,68.7
2019-02-18T10:59:36.159Z,68.8
2019-02-18T11:00:26.234Z,68.9
2019-02-18T11:01:16.551Z,68.8
2019-02-18T11:02:07.307Z,68.8
2019-02-18T11:02:56.661Z,68.8
2019-02-18T11:03:46.737Z,68.6
2019-02-18T11:04:36.797Z,68.6
2019-02-18T11:05:27.624Z,68.5
2019-02-18T11:06:16.934Z,68.6
2019-02-18T11:07:06.696Z,68.6
2019-02-18T11:07:57.091Z,68.6
2019-02-18T11:08:47.347Z,68.8
2019-02-18T11:09:37.393Z,68.8
2019-02-18T11:10:27.451Z,68.8
2019-02-18T11:11:19.719Z,68.8
2019-02-18T11:12:07.040Z,68.9
2019-02-18T11:12:58.469Z,68.8
2019-02-18T11:13:47.471Z,68.6
2019-02-18T11:14:37.496Z,68.5
2019-02-18T11:15:27.546Z,68.3
2019-02-18T11:16:17.609Z,68.3
2019-02-18T11:17:07.698Z,68.6
2019-02-18T11:17:57.971Z,68.8
2019-02-18T11:18:47.799Z,68.9
2019-02-18T11:19:37.930Z,68.9